createdAt,value
2023-02-04T00:00:07.541Z,3.10
2023-02-04T00:02:09.173Z,1.15
2023-02-04T00:04:12.674Z,2.80
2023-02-04T00:06:14.306Z,0.70
2023-02-04T00:08:15.949Z,0.63
2023-02-04T00:10:18.837Z,4.03
2023-02-04T00:12:20.512Z,1.10
2023-02-04T00:14:22.155Z,0.98
2023-02-04T00:16:23.917Z,2.10
2023-02-04T00:18:25.577Z,0.63
2023-02-04T00:20:27.237Z,0.82
2023-02-04T00:22:29.167Z,0.95
2023-02-04T00:24:31.047Z,3.13
2023-02-04T00:26:32.710Z,0.52
2023-02-04T00:28:34.459Z,0.45
2023-02-04T00:30:36.216Z,2.28
2023-02-04T00:32:37.893Z,0.88
2023-02-04T00:34:39.644Z,0.50
2023-02-04T00:36:41.343Z,0.63
2023-02-04T00:38:43.064Z,1.17
2023-02-04T00:40:44.783Z,2.65
2023-02-04T00:42:46.456Z,0.73
2023-02-04T00:44:48.317Z,0.60
2023-02-04T00:46:49.998Z,0.60
2023-02-04T00:48:51.649Z,3.38
2023-02-04T00:50:53.998Z,0.90
2023-02-04T00:52:55.621Z,0.93
2023-02-04T00:54:57.214Z,1.50
2023-02-04T00:56:58.815Z,0.50
2023-02-04T00:59:00.924Z,0.60
2023-02-04T01:01:02.877Z,0.43
2023-02-04T01:03:04.650Z,0.50
2023-02-04T01:05:08.103Z,3.13
2023-02-04T01:07:09.734Z,1.25
2023-02-04T01:09:12.219Z,0.55
2023-02-04T01:11:13.896Z,0.88
2023-02-04T01:13:15.549Z,0.93
2023-02-04T01:15:17.320Z,0.70
2023-02-04T01:17:19.767Z,0.60
2023-02-04T01:19:21.435Z,0.85
2023-02-04T01:21:24.284Z,0.70
2023-02-04T01:23:25.942Z,0.40
2023-02-04T01:25:27.608Z,1.40
2023-02-04T01:27:29.293Z,0.60
2023-02-04T01:29:30.886Z,0.60
2023-02-04T01:31:33.999Z,1.25
2023-02-04T01:33:35.768Z,2.47
2023-02-04T01:35:37.492Z,0.80
2023-02-04T01:37:39.158Z,0.80
2023-02-04T01:39:40.812Z,0.65
2023-02-04T01:41:42.553Z,0.60
2023-02-04T01:43:45.301Z,2.33
2023-02-04T01:45:46.982Z,0.50
2023-02-04T01:47:48.966Z,0.90
2023-02-04T01:49:54.100Z,0.50
2023-02-04T01:51:55.844Z,0.60
2023-02-04T01:53:58.072Z,1.05
2023-02-04T01:55:59.885Z,0.82
2023-02-04T01:58:03.024Z,1.10
2023-02-04T02:00:13.265Z,1.08
2023-02-04T02:02:39.742Z,2.77
2023-02-04T02:04:41.400Z,0.47
2023-02-04T02:06:48.322Z,0.60
2023-02-04T02:08:49.989Z,0.40
2023-02-04T02:10:52.572Z,0.70
2023-02-04T02:12:55.776Z,0.95
2023-02-04T02:14:57.518Z,0.50
2023-02-04T02:16:59.361Z,0.80
2023-02-04T02:19:01.152Z,0.57
2023-02-04T02:21:08.774Z,0.45
2023-02-04T02:23:13.115Z,1.17
2023-02-04T02:25:15.582Z,0.63
2023-02-04T02:27:17.249Z,0.65
2023-02-04T02:29:19.229Z,1.38
2023-02-04T02:31:22.456Z,0.60
2023-02-04T02:33:26.181Z,0.60
2023-02-04T02:35:27.887Z,0.40
2023-02-04T02:37:30.107Z,0.57
2023-02-04T02:39:32.273Z,0.70
2023-02-04T02:41:35.192Z,0.50
2023-02-04T02:43:38.137Z,1.20
2023-02-04T02:45:39.818Z,0.73
2023-02-04T02:47:41.684Z,0.52
2023-02-04T02:49:43.934Z,0.65
2023-02-04T02:51:46.685Z,0.40
2023-02-04T02:53:49.914Z,0.70
2023-02-04T02:55:52.019Z,0.70
2023-02-04T02:57:55.556Z,1.15
2023-02-04T02:59:57.209Z,0.50
2023-02-04T03:02:02.778Z,0.70
2023-02-04T03:04:04.582Z,1.13
2023-02-04T03:06:20.965Z,1.38
2023-02-04T03:08:22.927Z,1.05
2023-02-04T03:10:24.581Z,0.55
2023-02-04T03:12:26.483Z,0.75
2023-02-04T03:14:28.874Z,1.15
2023-02-04T03:16:33.564Z,0.40
2023-02-04T03:18:36.688Z,0.80
2023-02-04T03:20:39.948Z,0.40
2023-02-04T03:22:42.022Z,0.80
2023-02-04T03:24:43.649Z,0.50
2023-02-04T03:26:45.330Z,0.68
2023-02-04T03:28:46.989Z,1.85
2023-02-04T03:30:53.651Z,0.60
2023-02-04T03:32:55.466Z,1.20
2023-02-04T03:34:57.114Z,1.50
2023-02-04T03:36:58.770Z,0.50
2023-02-04T03:39:00.434Z,0.73
2023-02-04T03:41:02.286Z,0.77
2023-02-04T03:43:04.089Z,2.33
2023-02-04T03:45:06.117Z,0.60
2023-02-04T03:47:07.701Z,1.45
2023-02-04T03:49:09.304Z,0.80
2023-02-04T03:51:10.914Z,0.95
2023-02-04T03:53:12.584Z,0.73
2023-02-04T03:55:14.400Z,0.75
2023-02-04T03:57:16.101Z,2.75
2023-02-04T03:59:17.758Z,1.48
2023-02-04T04:01:19.531Z,1.23
2023-02-04T04:03:21.165Z,0.70
2023-02-04T04:05:22.836Z,0.63
2023-02-04T04:07:24.459Z,0.68
2023-02-04T04:09:26.238Z,1.00
2023-02-04T04:11:27.979Z,0.60
2023-02-04T04:13:29.632Z,0.70
2023-02-04T04:15:31.381Z,0.70
2023-02-04T04:17:33.425Z,0.65
2023-02-04T04:19:35.514Z,0.70
2023-02-04T04:21:37.112Z,1.83
2023-02-04T04:23:38.725Z,1.48
2023-02-04T04:25:40.365Z,0.85
2023-02-04T04:27:42.017Z,0.55
2023-02-04T04:29:43.849Z,0.90
2023-02-04T04:31:45.503Z,0.85
2023-02-04T04:33:47.184Z,0.50
2023-02-04T04:35:48.843Z,0.68
2023-02-04T04:37:50.489Z,1.52
2023-02-04T04:39:52.292Z,1.17
2023-02-04T04:41:54.005Z,1.40
2023-02-04T04:43:55.652Z,2.67
2023-02-04T04:45:57.313Z,0.98
2023-02-04T04:47:58.992Z,1.45
2023-02-04T04:50:00.650Z,1.85
2023-02-04T04:52:02.370Z,0.70
2023-02-04T04:54:04.083Z,0.70
2023-02-04T04:56:05.916Z,0.70
2023-02-04T04:58:08.342Z,1.60
2023-02-04T05:00:15.216Z,1.05
2023-02-04T05:02:16.798Z,1.00
2023-02-04T05:04:18.461Z,1.40
2023-02-04T05:06:25.207Z,0.50
2023-02-04T05:08:26.841Z,0.47
2023-02-04T05:10:28.485Z,0.43
2023-02-04T05:12:30.165Z,0.60
2023-02-04T05:14:32.090Z,0.80
2023-02-04T05:16:33.793Z,1.13
2023-02-04T05:18:35.564Z,1.10
2023-02-04T05:20:37.227Z,1.85
2023-02-04T05:22:38.856Z,0.63
2023-02-04T05:24:40.496Z,0.80
2023-02-04T05:26:42.163Z,0.40
2023-02-04T05:28:43.854Z,0.93
2023-02-04T05:30:45.535Z,0.60
2023-02-04T05:32:47.228Z,1.15
2023-02-04T05:34:48.848Z,3.20
2023-02-04T05:36:50.544Z,0.85
2023-02-04T05:38:52.177Z,0.50
2023-02-04T05:40:53.780Z,1.30
2023-02-04T05:42:55.413Z,0.50
2023-02-04T05:44:57.053Z,0.95
2023-02-04T05:46:58.665Z,0.52
2023-02-04T05:49:00.296Z,0.77
2023-02-04T05:51:02.033Z,0.52
2023-02-04T05:53:03.685Z,1.90
2023-02-04T05:55:05.762Z,0.63
2023-02-04T05:57:07.482Z,1.98
2023-02-04T05:59:09.125Z,2.00
2023-02-04T06:01:10.754Z,0.60
2023-02-04T06:03:14.566Z,1.38
2023-02-04T06:05:16.574Z,1.15
2023-02-04T06:07:18.209Z,0.90
2023-02-04T06:09:19.841Z,1.65
2023-02-04T06:11:21.553Z,0.68
2023-02-04T06:13:23.193Z,0.95
2023-02-04T06:15:24.812Z,1.58
2023-02-04T06:17:26.433Z,1.08
2023-02-04T06:19:28.283Z,2.35
2023-02-04T06:21:29.908Z,2.30
2023-02-04T06:23:34.220Z,0.98
2023-02-04T06:25:35.890Z,1.23
2023-02-04T06:27:37.517Z,2.30
2023-02-04T06:29:39.205Z,1.08
2023-02-04T06:31:40.946Z,3.72
2023-02-04T06:33:42.632Z,4.53
2023-02-04T06:35:44.502Z,6.28
2023-02-04T06:37:46.234Z,2.40
2023-02-04T06:39:47.910Z,3.90
2023-02-04T06:41:49.555Z,8.55
2023-02-04T06:43:51.160Z,6.72
2023-02-04T06:45:52.965Z,8.68
2023-02-04T06:47:54.561Z,4.93
2023-02-04T06:49:56.244Z,6.97
2023-02-04T06:51:57.918Z,9.13
2023-02-04T06:53:59.583Z,7.05
2023-02-04T06:56:01.225Z,3.63
2023-02-04T06:58:02.986Z,7.57
2023-02-04T07:00:05.959Z,11.57
2023-02-04T07:02:08.516Z,8.18
2023-02-04T07:04:10.166Z,12.65
2023-02-04T07:06:11.811Z,11.80
2023-02-04T07:08:13.428Z,5.47
2023-02-04T07:10:16.717Z,5.20
2023-02-04T07:12:18.553Z,1.88
2023-02-04T07:14:20.989Z,7.68
2023-02-04T07:16:22.840Z,4.07
2023-02-04T07:18:24.533Z,4.95
2023-02-04T07:20:26.186Z,4.20
2023-02-04T07:22:27.851Z,7.15
2023-02-04T07:24:29.794Z,12.30
2023-02-04T07:26:31.472Z,6.05
2023-02-04T07:28:33.214Z,10.25
2023-02-04T07:30:35.264Z,5.32
2023-02-04T07:32:37.183Z,3.03
2023-02-04T07:34:38.799Z,3.60
2023-02-04T07:36:40.769Z,6.20
2023-02-04T07:38:42.394Z,12.93
2023-02-04T07:40:44.091Z,6.88
2023-02-04T07:42:45.831Z,7.00
2023-02-04T07:44:47.549Z,13.02
2023-02-04T07:46:49.238Z,9.82
2023-02-04T07:48:50.893Z,12.38
2023-02-04T07:50:52.488Z,18.33
2023-02-04T07:52:54.133Z,24.30
2023-02-04T07:54:55.729Z,16.08
2023-02-04T07:56:57.404Z,14.98
2023-02-04T07:58:59.114Z,22.13
2023-02-04T08:01:01.243Z,21.77
2023-02-04T08:03:02.978Z,14.32
2023-02-04T08:05:04.900Z,8.40
2023-02-04T08:07:06.706Z,18.15
2023-02-04T08:09:08.363Z,18.80
2023-02-04T08:11:10.048Z,19.08
2023-02-04T08:13:11.732Z,14.35
2023-02-04T08:15:13.329Z,15.77
2023-02-04T08:17:15.116Z,11.25
2023-02-04T08:19:19.033Z,12.30
2023-02-04T08:21:20.727Z,14.30
2023-02-04T08:23:22.963Z,11.35
2023-02-04T08:25:24.613Z,15.43
2023-02-04T08:27:26.307Z,9.82
2023-02-04T08:29:27.968Z,10.00
2023-02-04T08:31:29.722Z,10.00
2023-02-04T08:33:31.526Z,8.85
2023-02-04T08:35:33.193Z,12.82
2023-02-04T08:37:34.847Z,8.13
2023-02-04T08:39:36.527Z,12.43
2023-02-04T08:41:38.657Z,11.45
2023-02-04T08:43:41.463Z,8.63
2023-02-04T08:45:43.085Z,10.38
2023-02-04T08:47:44.847Z,7.38
2023-02-04T08:49:46.496Z,8.88
2023-02-04T08:51:48.137Z,9.18
2023-02-04T08:53:49.819Z,5.13
2023-02-04T08:55:51.480Z,9.02
2023-02-04T08:57:53.141Z,7.55
2023-02-04T08:59:54.750Z,9.00
2023-02-04T09:01:56.466Z,9.18
2023-02-04T09:03:58.135Z,8.50
2023-02-04T09:05:59.782Z,8.38
2023-02-04T09:08:01.409Z,10.98
2023-02-04T09:10:03.123Z,8.15
2023-02-04T09:12:04.795Z,10.48
2023-02-04T09:14:07.053Z,6.15
2023-02-04T09:16:08.698Z,8.90
2023-02-04T09:18:21.886Z,7.30
2023-02-04T09:20:23.580Z,4.85
2023-02-04T09:22:25.204Z,6.95
2023-02-04T09:24:26.884Z,7.13
2023-02-04T09:26:28.505Z,5.97
2023-02-04T09:28:30.304Z,8.90
2023-02-04T09:30:32.531Z,6.30
2023-02-04T09:32:34.389Z,5.78
2023-02-04T09:34:36.097Z,6.45
2023-02-04T09:36:39.030Z,9.73
2023-02-04T09:38:40.711Z,10.02
2023-02-04T09:40:46.668Z,9.02
2023-02-04T09:42:52.153Z,8.50
2023-02-04T09:44:54.014Z,8.20
2023-02-04T09:47:01.682Z,5.35
2023-02-04T09:49:04.339Z,6.57
2023-02-04T09:51:08.123Z,6.28
2023-02-04T09:53:14.575Z,7.38
2023-02-04T09:55:21.411Z,6.90
2023-02-04T09:57:23.060Z,6.68
2023-02-04T09:59:29.384Z,6.47
2023-02-04T10:01:31.006Z,6.80
2023-02-04T10:03:33.268Z,6.43
2023-02-04T10:05:37.112Z,7.32
2023-02-04T10:07:38.777Z,7.20
2023-02-04T10:09:40.972Z,4.72
2023-02-04T10:11:44.426Z,7.22
2023-02-04T10:13:50.292Z,8.30
2023-02-04T10:15:53.125Z,5.28
2023-02-04T10:17:58.814Z,6.97
2023-02-04T10:20:01.241Z,10.00
2023-02-04T10:22:04.172Z,10.70
2023-02-04T10:24:11.632Z,12.80
2023-02-04T10:26:14.343Z,12.70
2023-02-04T10:28:16.109Z,14.70
2023-02-04T10:30:37.761Z,9.98
2023-02-04T10:32:39.441Z,10.68
2023-02-04T10:34:41.086Z,23.00
2023-02-04T10:36:45.829Z,11.27
2023-02-04T10:39:00.277Z,8.93
2023-02-04T10:41:03.696Z,15.45
2023-02-04T10:43:17.457Z,13.95
2023-02-04T10:45:24.716Z,21.88
2023-02-04T10:47:31.028Z,15.95
2023-02-04T10:49:33.490Z,16.85
2023-02-04T10:51:35.177Z,23.65
2023-02-04T10:53:56.205Z,18.63
2023-02-04T10:55:57.897Z,16.80
2023-02-04T10:58:03.092Z,17.33
2023-02-04T11:00:11.404Z,17.92
2023-02-04T11:02:34.976Z,40.55
2023-02-04T11:04:36.639Z,50.92
2023-02-04T11:06:38.295Z,46.88
2023-02-04T11:08:40.540Z,27.48
2023-02-04T11:10:42.239Z,34.85
2023-02-04T11:13:04.986Z,30.80
2023-02-04T11:15:27.517Z,34.40
2023-02-04T11:17:33.733Z,48.40
2023-02-04T11:19:39.908Z,38.53
2023-02-04T11:21:43.292Z,68.95
2023-02-04T11:23:45.001Z,48.25
2023-02-04T11:25:46.695Z,54.40
2023-02-04T11:27:48.474Z,48.20
2023-02-04T11:29:51.026Z,55.67
2023-02-04T11:31:52.741Z,59.35
2023-02-04T11:34:14.303Z,54.70
2023-02-04T11:36:16.976Z,58.35
2023-02-04T11:38:29.301Z,64.30
2023-02-04T11:40:34.361Z,54.65
2023-02-04T11:42:41.902Z,56.88
2023-02-04T11:44:52.049Z,52.83
2023-02-04T11:46:55.476Z,53.70
2023-02-04T11:48:58.746Z,61.47
2023-02-04T11:51:03.591Z,48.00
2023-02-04T11:53:05.589Z,51.90
2023-02-04T11:55:10.192Z,55.33
2023-02-04T11:57:12.435Z,59.35
2023-02-04T11:59:15.002Z,48.65
2023-02-04T12:01:31.738Z,50.08
2023-02-04T12:03:36.333Z,45.67
2023-02-04T12:05:42.509Z,39.88
2023-02-04T12:07:45.380Z,46.47
2023-02-04T12:09:48.388Z,49.78
2023-02-04T12:11:53.937Z,42.38
2023-02-04T12:13:57.524Z,49.17
2023-02-04T12:16:01.942Z,48.35
2023-02-04T12:18:16.539Z,43.03
2023-02-04T12:20:18.432Z,36.00
2023-02-04T12:22:20.208Z,25.92
2023-02-04T12:24:21.857Z,26.42
2023-02-04T12:26:23.498Z,44.80
2023-02-04T12:28:25.673Z,51.13
2023-02-04T12:30:27.707Z,39.78
2023-02-04T12:32:29.366Z,43.75
2023-02-04T12:34:31.133Z,34.45
2023-02-04T12:36:32.784Z,33.13
2023-02-04T12:38:34.388Z,37.50
2023-02-04T12:40:36.186Z,42.05
2023-02-04T12:42:37.866Z,36.55
2023-02-04T12:44:39.571Z,36.15
2023-02-04T12:46:41.239Z,28.02
2023-02-04T12:48:43.678Z,27.13
2023-02-04T12:50:45.422Z,31.15
2023-02-04T12:52:47.070Z,29.65
2023-02-04T12:54:48.722Z,26.55
2023-02-04T12:56:53.345Z,29.73
2023-02-04T12:58:55.029Z,28.83
2023-02-04T13:00:56.683Z,33.88
2023-02-04T13:03:01.075Z,23.52
2023-02-04T13:05:02.804Z,27.38
2023-02-04T13:07:07.042Z,29.60
2023-02-04T13:09:08.783Z,32.67
2023-02-04T13:11:10.431Z,29.88
2023-02-04T13:13:12.094Z,28.48
2023-02-04T13:15:13.828Z,23.35
2023-02-04T13:17:15.559Z,31.90
2023-02-04T13:19:17.166Z,21.40
2023-02-04T13:21:18.843Z,30.38
2023-02-04T13:23:20.570Z,21.73
2023-02-04T13:25:22.184Z,28.20
2023-02-04T13:27:23.847Z,21.33
2023-02-04T13:29:25.475Z,26.23
2023-02-04T13:31:27.215Z,30.35
2023-02-04T13:33:29.037Z,27.55
2023-02-04T13:35:31.065Z,22.77
2023-02-04T13:37:32.891Z,27.02
2023-02-04T13:39:34.579Z,39.28
2023-02-04T13:41:36.413Z,32.67
2023-02-04T13:43:38.066Z,23.30
2023-02-04T13:45:40.620Z,25.08
2023-02-04T13:47:42.226Z,23.33
2023-02-04T13:49:43.881Z,29.10
2023-02-04T13:51:45.531Z,20.90
2023-02-04T13:53:47.297Z,24.58
2023-02-04T13:55:49.100Z,24.00
2023-02-04T13:57:51.190Z,15.18
2023-02-04T13:59:53.165Z,18.58
2023-02-04T14:01:54.905Z,21.38
2023-02-04T14:03:56.538Z,24.08
2023-02-04T14:05:58.201Z,20.75
2023-02-04T14:07:59.924Z,24.23
2023-02-04T14:10:01.628Z,29.15
2023-02-04T14:12:03.366Z,21.83
2023-02-04T14:14:05.290Z,20.20
2023-02-04T14:16:09.169Z,27.05
2023-02-04T14:18:11.125Z,27.77
2023-02-04T14:20:13.046Z,27.45
2023-02-04T14:22:14.749Z,22.65
2023-02-04T14:24:17.185Z,22.10
2023-02-04T14:26:18.815Z,17.48
2023-02-04T14:28:20.486Z,19.92
2023-02-04T14:30:25.355Z,27.35
2023-02-04T14:32:27.059Z,28.23
2023-02-04T14:34:28.684Z,21.88
2023-02-04T14:36:30.462Z,19.48
2023-02-04T14:38:33.702Z,19.23
2023-02-04T14:40:35.473Z,28.08
2023-02-04T14:42:38.530Z,53.83
2023-02-04T14:44:40.274Z,37.05
2023-02-04T14:46:44.445Z,31.73
2023-02-04T14:48:46.098Z,27.83
2023-02-04T14:50:47.786Z,25.85
2023-02-04T14:52:49.421Z,22.63
2023-02-04T14:54:51.068Z,20.65
2023-02-04T14:56:52.810Z,14.60
2023-02-04T14:58:54.430Z,20.63
2023-02-04T15:00:56.113Z,23.02
2023-02-04T15:02:57.729Z,19.55
2023-02-04T15:04:59.302Z,25.00
2023-02-04T15:07:01.008Z,14.50
2023-02-04T15:09:02.703Z,18.33
2023-02-04T15:11:04.468Z,14.40
2023-02-04T15:13:06.233Z,12.50
2023-02-04T15:15:08.584Z,15.40
2023-02-04T15:17:10.363Z,17.23
2023-02-04T15:19:11.967Z,17.77
2023-02-04T15:21:14.265Z,15.95
2023-02-04T15:23:17.990Z,17.20
2023-02-04T15:25:19.668Z,13.32
2023-02-04T15:27:21.341Z,11.80
2023-02-04T15:29:23.062Z,13.07
2023-02-04T15:31:25.149Z,10.63
2023-02-04T15:33:26.983Z,16.02
2023-02-04T15:35:28.653Z,13.45
2023-02-04T15:37:30.394Z,12.35
2023-02-04T15:39:32.044Z,15.85
2023-02-04T15:41:34.778Z,17.75
2023-02-04T15:43:36.400Z,29.88
2023-02-04T15:45:41.339Z,20.77
2023-02-04T15:47:43.006Z,23.02
2023-02-04T15:49:44.706Z,34.58
2023-02-04T15:51:46.542Z,30.63
2023-02-04T15:53:48.254Z,37.30
2023-02-04T15:55:50.052Z,32.63
2023-02-04T15:57:51.700Z,31.67
2023-02-04T15:59:53.363Z,34.35
2023-02-04T16:01:55.127Z,30.27
2023-02-04T16:03:57.694Z,31.05
2023-02-04T16:05:59.340Z,24.05
2023-02-04T16:08:01.113Z,33.90
2023-02-04T16:10:02.953Z,28.15
2023-02-04T16:12:04.957Z,32.33
2023-02-04T16:14:07.083Z,40.95
2023-02-04T16:16:08.915Z,33.40
2023-02-04T16:18:10.611Z,35.70
2023-02-04T16:20:12.384Z,26.98
2023-02-04T16:22:14.118Z,36.97
2023-02-04T16:24:18.416Z,43.15
2023-02-04T16:26:20.060Z,32.10
2023-02-04T16:28:21.971Z,45.97
2023-02-04T16:30:23.629Z,39.85
2023-02-04T16:32:25.334Z,41.10
2023-02-04T16:34:27.030Z,45.40
2023-02-04T16:36:28.661Z,36.10
2023-02-04T16:38:30.839Z,44.88
2023-02-04T16:40:32.744Z,43.10
2023-02-04T16:42:34.737Z,48.90
2023-02-04T16:44:37.327Z,37.95
2023-02-04T16:46:39.098Z,46.42
2023-02-04T16:48:40.791Z,43.70
2023-02-04T16:50:42.481Z,37.10
2023-02-04T16:52:44.163Z,37.08
2023-02-04T16:54:45.921Z,37.97
2023-02-04T16:56:47.597Z,40.35
2023-02-04T16:58:49.640Z,31.13
2023-02-04T17:00:51.357Z,32.00
2023-02-04T17:02:53.086Z,27.73
2023-02-04T17:04:54.769Z,23.88
2023-02-04T17:06:56.688Z,27.75
2023-02-04T17:08:59.152Z,35.35
2023-02-04T17:11:19.589Z,26.92
2023-02-04T17:13:21.540Z,33.92
2023-02-04T17:15:23.144Z,39.97
2023-02-04T17:17:24.786Z,30.95
2023-02-04T17:19:26.540Z,27.77
2023-02-04T17:21:29.612Z,30.35
2023-02-04T17:23:31.507Z,27.63
2023-02-04T17:25:33.483Z,22.85
2023-02-04T17:27:35.293Z,25.27
2023-02-04T17:29:36.963Z,27.23
2023-02-04T17:31:39.618Z,27.83
2023-02-04T17:33:41.342Z,29.95
2023-02-04T17:35:42.942Z,27.70
2023-02-04T17:37:44.605Z,17.77
2023-02-04T17:39:46.221Z,22.88
2023-02-04T17:41:47.924Z,32.38
2023-02-04T17:43:50.304Z,21.10
2023-02-04T17:45:51.989Z,29.73
2023-02-04T17:47:53.645Z,22.67
2023-02-04T17:49:55.981Z,35.17
2023-02-04T17:51:57.715Z,24.10
2023-02-04T17:53:59.398Z,22.70
2023-02-04T17:56:01.034Z,16.27
2023-02-04T17:58:12.007Z,15.50
2023-02-04T18:00:16.938Z,25.30
2023-02-04T18:02:29.567Z,31.65
2023-02-04T18:04:31.686Z,15.70
2023-02-04T18:06:33.857Z,17.25
2023-02-04T18:08:39.396Z,18.38
2023-02-04T18:10:46.306Z,22.23
2023-02-04T18:12:48.596Z,23.38
2023-02-04T18:14:50.245Z,18.33
2023-02-04T18:16:56.981Z,12.43
2023-02-04T18:19:22.241Z,13.40
2023-02-04T18:21:26.523Z,22.85
2023-02-04T18:23:30.226Z,9.13
2023-02-04T18:25:32.448Z,18.92
2023-02-04T18:27:34.615Z,13.63
2023-02-04T18:29:38.941Z,15.13
2023-02-04T18:31:48.323Z,17.40
2023-02-04T18:33:50.385Z,19.35
2023-02-04T18:35:55.993Z,15.52
2023-02-04T18:37:57.627Z,13.73
2023-02-04T18:40:14.160Z,14.15
2023-02-04T18:42:22.509Z,11.40
2023-02-04T18:44:30.471Z,15.75
2023-02-04T18:46:37.033Z,15.77
2023-02-04T18:49:16.398Z,12.77
2023-02-04T18:51:50.699Z,13.90
2023-02-04T18:53:56.407Z,14.68
2023-02-04T18:56:01.061Z,12.50
2023-02-04T18:58:34.154Z,12.73
2023-02-04T19:00:36.231Z,9.07
2023-02-04T19:02:41.709Z,14.50
2023-02-04T19:04:44.506Z,13.35
2023-02-04T19:06:48.296Z,10.15
2023-02-04T19:08:49.951Z,12.70
2023-02-04T19:10:53.907Z,8.77
2023-02-04T19:13:19.983Z,10.65
2023-02-04T19:15:36.348Z,15.85
2023-02-04T19:17:37.969Z,9.90
2023-02-04T19:19:43.479Z,17.25
2023-02-04T19:21:50.548Z,7.38
2023-02-04T19:24:17.797Z,11.13
2023-02-04T19:26:35.242Z,14.60
2023-02-04T19:28:38.121Z,9.88
2023-02-04T19:30:49.538Z,13.45
2023-02-04T19:32:55.654Z,18.13
2023-02-04T19:35:12.700Z,11.65
2023-02-04T19:37:39.845Z,8.80
2023-02-04T19:39:41.961Z,10.75
2023-02-04T19:41:49.545Z,12.23
2023-02-04T19:43:51.291Z,9.10
2023-02-04T19:45:53.632Z,8.05
2023-02-04T19:47:56.638Z,7.68
2023-02-04T19:50:21.545Z,11.00
2023-02-04T19:52:29.939Z,14.18
2023-02-04T19:54:39.095Z,15.52
2023-02-04T19:56:41.299Z,13.88
2023-02-04T19:58:43.433Z,13.13
2023-02-04T20:00:50.917Z,12.30
2023-02-04T20:02:52.632Z,9.80
2023-02-04T20:04:54.807Z,12.25
2023-02-04T20:06:56.530Z,18.25
2023-02-04T20:09:04.009Z,8.82
2023-02-04T20:11:17.993Z,11.18
2023-02-04T20:13:20.763Z,10.07
2023-02-04T20:15:25.435Z,11.73
2023-02-04T20:17:33.693Z,10.43
2023-02-04T20:19:37.733Z,11.18
2023-02-04T20:21:39.383Z,7.57
2023-02-04T20:23:41.004Z,11.93
2023-02-04T20:25:45.728Z,8.35
2023-02-04T20:27:57.435Z,6.93
2023-02-04T20:30:20.809Z,9.23
2023-02-04T20:32:27.623Z,11.38
2023-02-04T20:34:34.839Z,9.25
2023-02-04T20:36:40.774Z,8.95
2023-02-04T20:38:42.428Z,10.18
2023-02-04T20:40:46.722Z,8.15
2023-02-04T20:42:56.558Z,11.65
2023-02-04T20:45:09.486Z,10.55
2023-02-04T20:47:21.087Z,6.60
2023-02-04T20:49:24.529Z,10.95
2023-02-04T20:51:28.954Z,11.32
2023-02-04T20:53:37.755Z,7.78
2023-02-04T20:55:39.449Z,7.18
2023-02-04T20:57:41.089Z,13.27
2023-02-04T20:59:42.807Z,11.43
2023-02-04T21:01:45.590Z,10.88
2023-02-04T21:03:49.268Z,7.57
2023-02-04T21:05:52.527Z,10.23
2023-02-04T21:07:57.741Z,9.48
2023-02-04T21:09:59.694Z,9.00
2023-02-04T21:12:02.193Z,10.35
2023-02-04T21:14:04.057Z,8.52
2023-02-04T21:16:06.173Z,8.07
2023-02-04T21:18:07.966Z,12.00
2023-02-04T21:20:10.455Z,6.78
2023-02-04T21:22:12.170Z,6.75
2023-02-04T21:24:13.943Z,5.63
2023-02-04T21:26:15.904Z,6.18
2023-02-04T21:28:17.577Z,7.95
2023-02-04T21:30:20.958Z,5.20
2023-02-04T21:32:25.690Z,7.65
2023-02-04T21:34:27.355Z,7.38
2023-02-04T21:36:29.113Z,4.95
2023-02-04T21:38:30.737Z,6.90
2023-02-04T21:40:33.895Z,5.72
2023-02-04T21:42:35.538Z,5.20
2023-02-04T21:44:37.924Z,8.23
2023-02-04T21:46:39.639Z,6.30
2023-02-04T21:48:41.379Z,7.40
2023-02-04T21:50:43.133Z,6.18
2023-02-04T21:52:45.051Z,11.20
2023-02-04T21:54:46.682Z,13.43
2023-02-04T21:56:48.329Z,14.43
2023-02-04T21:58:49.992Z,15.50
2023-02-04T22:00:51.729Z,15.85
2023-02-04T22:02:54.192Z,13.00
2023-02-04T22:04:55.792Z,17.85
2023-02-04T22:06:57.419Z,15.30
2023-02-04T22:08:59.062Z,13.98
2023-02-04T22:11:00.713Z,16.23
2023-02-04T22:13:21.710Z,14.77
2023-02-04T22:15:27.953Z,13.70
2023-02-04T22:17:29.771Z,14.90
2023-02-04T22:19:31.446Z,11.82
2023-02-04T22:21:34.754Z,14.63
2023-02-04T22:23:36.492Z,16.42
2023-02-04T22:25:38.139Z,19.48
2023-02-04T22:27:40.028Z,13.48
2023-02-04T22:29:41.743Z,12.65
2023-02-04T22:31:43.446Z,14.02
2023-02-04T22:33:45.091Z,11.40
2023-02-04T22:35:48.437Z,12.60
2023-02-04T22:37:50.064Z,12.07
2023-02-04T22:39:51.853Z,13.13
2023-02-04T22:41:53.477Z,14.23
2023-02-04T22:43:55.148Z,13.65
2023-02-04T22:45:56.792Z,12.18
2023-02-04T22:47:58.476Z,11.48
2023-02-04T22:50:00.122Z,14.63
2023-02-04T22:52:02.841Z,11.90
2023-02-04T22:54:04.569Z,13.18
2023-02-04T22:56:06.390Z,13.13
2023-02-04T22:58:08.070Z,11.02
2023-02-04T23:00:10.753Z,11.68
2023-02-04T23:02:12.451Z,11.48
2023-02-04T23:04:14.199Z,12.70
2023-02-04T23:06:16.306Z,11.60
2023-02-04T23:08:18.264Z,9.80
2023-02-04T23:10:20.071Z,8.85
2023-02-04T23:12:21.674Z,10.13
2023-02-04T23:14:23.656Z,9.43
2023-02-04T23:16:25.457Z,9.07
2023-02-04T23:18:27.195Z,9.95
2023-02-04T23:20:28.890Z,8.82
2023-02-04T23:22:30.551Z,11.85
2023-02-04T23:24:32.427Z,11.75
2023-02-04T23:26:34.135Z,10.45
2023-02-04T23:28:36.093Z,8.35
2023-02-04T23:30:37.892Z,9.88
2023-02-04T23:32:39.494Z,8.18
2023-02-04T23:34:41.166Z,9.85
2023-02-04T23:36:43.034Z,10.38
2023-02-04T23:38:44.739Z,10.70
2023-02-04T23:40:46.344Z,10.10
2023-02-04T23:42:47.972Z,7.38
2023-02-04T23:44:49.738Z,8.48
2023-02-04T23:46:51.465Z,8.15
2023-02-04T23:48:53.086Z,7.95
2023-02-04T23:50:57.046Z,7.82
2023-02-04T23:52:58.789Z,6.97
2023-02-04T23:55:00.420Z,7.85
2023-02-04T23:57:02.124Z,9.30
2023-02-04T23:59:04.272Z,9.30
